Terminal Aerodrome Forecast
Issued by NWS

Home | Current Version | Previous Version | Text Only | Print | Product List | Glossary Off
Versions: 1 2 3 4 5 6 7 8 9 10 11 12 13 14 15 16

000
FTUS43 KMPX 241138
TAFRWF
TAF
KRWF 241138Z 2412/2512 14012KT 6SM BR OVC008
     FM241500 15016G22KT P6SM OVC011
     FM242100 14014KT 5SM -RA BR OVC015
     FM250100 12011KT 2SM -RASN BR OVC009
      TEMPO 2501/2504 1SM -SN
     FM250600 21009KT 6SM BR OVC015
     FM250900 27014KT P6SM BKN020=

USA.gov is the U.S. government's official web portal to all federal, state and local government web resources and services.